Wolf Point, MT

11:18 PM MST on February 11, 2016 (GMT -0700)
Clayton | | Change Station
CLOSE
Current Station
Airport
Location: Wolf Point,
Elevation: 1985 ft
Nearby Weather Stations

Elev 1985 ft 48.09 °N, 105.58 °W | Updated 25 minutes ago

Overcast
Overcast
26 °F
Feels Like 17 °F
N
9
Wind Variable Wind from East

Today
High -- | Low -- °F
--% Chance of Precip.
Yesterday
High -- | Low -- °F
Precip. -- in
Pressure 30.44 in
Visibility 10.0 miles
Clouds Overcast 2100 ft
Windchill 17 °F
Dew Point 18 °F
Humidity 71%
Rainfall 0.04 in
Snow Depth Not available.
7:16 AM 5:17 PM
Waxing Crescent, 18% visible
METAR KOLF 120553Z AUTO 08008KT 10SM OVC021 M03/M08 A3035 RMK AO2 SLP306 T10331078 11017 21033 53016
Pressure 30.44 in
Visibility 10.0 miles
Clouds Overcast 2100 ft
Windchill 17 °F
Dew Point 18 °F
Humidity 71%
Rainfall 0.04 in
Snow Depth Not available.
7:16 AM 5:17 PM
Waxing Crescent, 18% visible
METAR KOLF 120553Z AUTO 08008KT 10SM OVC021 M03/M08 A3035 RMK AO2 SLP306 T10331078 11017 21033 53016

10-Day Weather Forecast

Almanac

Astronomy

Feb. 11, 2016 Rise Set
Actual Time
Civil Twilight
Nautical Twilight
Astronomical Twilight
Moon
Length of Visible Light
Length of Day
Tomorrow will be .
, % of the Moon is Illuminated

Today's Extremes

State Highs State Lows

Community

WunderPhotos

Upload Photos

1,892,273 photos uploaded!

WunderBlog® & News

Nearby

Air Quality

  Air Quality AQ Index Pollutant
Not available.

Snow Depth

Station Depth Elevation

Earthquake Activity

City Distance Mag. Time & Date
Minimum magnitude displayed is 2.5.

Coastal Water Temperatures

Place Temperature

Stations

Nearby Weather Stations

Station Location Temp. Windchill Dew Point Humidity Wind Precip. Elev Updated Type
                   

Watches & Warnings

There are currently no watches in effect.